sensor_id;sensor_type;location;lat;lon;timestamp;P1;durP1;ratioP1;P2;durP2;ratioP2
57067;SDS011;43391;47.448;18.904;2023-07-02T00:00:55;18.73;;;14.45;;
57067;SDS011;43391;47.448;18.904;2023-07-02T00:03:20;21.15;;;16.08;;
57067;SDS011;43391;47.448;18.904;2023-07-02T00:05:48;19.38;;;15.48;;
57067;SDS011;43391;47.448;18.904;2023-07-02T00:08:15;18.75;;;15.52;;
57067;SDS011;43391;47.448;18.904;2023-07-02T00:10:41;19.88;;;16.73;;
57067;SDS011;43391;47.448;18.904;2023-07-02T00:13:06;19.88;;;15.30;;
57067;SDS011;43391;47.448;18.904;2023-07-02T00:15:32;20.92;;;15.65;;
57067;SDS011;43391;47.448;18.904;2023-07-02T00:17:57;20.05;;;16.67;;
57067;SDS011;43391;47.448;18.904;2023-07-02T00:20:23;20.73;;;16.08;;
57067;SDS011;43391;47.448;18.904;2023-07-02T00:22:49;20.85;;;15.57;;
57067;SDS011;43391;47.448;18.904;2023-07-02T00:25:14;20.77;;;15.95;;
57067;SDS011;43391;47.448;18.904;2023-07-02T00:27:40;23.20;;;16.08;;
57067;SDS011;43391;47.448;18.904;2023-07-02T00:30:06;21.60;;;16.30;;
57067;SDS011;43391;47.448;18.904;2023-07-02T00:32:31;21.27;;;16.27;;
57067;SDS011;43391;47.448;18.904;2023-07-02T00:34:57;21.55;;;16.75;;
57067;SDS011;43391;47.448;18.904;2023-07-02T00:37:23;20.83;;;15.68;;
57067;SDS011;43391;47.448;18.904;2023-07-02T00:39:49;25.45;;;15.88;;
57067;SDS011;43391;47.448;18.904;2023-07-02T00:42:14;19.98;;;16.05;;
57067;SDS011;43391;47.448;18.904;2023-07-02T00:44:39;23.10;;;16.30;;
57067;SDS011;43391;47.448;18.904;2023-07-02T00:47:06;23.67;;;15.20;;
57067;SDS011;43391;47.448;18.904;2023-07-02T00:49:33;27.55;;;16.77;;
57067;SDS011;43391;47.448;18.904;2023-07-02T00:51:58;21.45;;;15.82;;
57067;SDS011;43391;47.448;18.904;2023-07-02T00:54:24;22.00;;;15.57;;
57067;SDS011;43391;47.448;18.904;2023-07-02T00:56:52;22.30;;;15.55;;
57067;SDS011;43391;47.448;18.904;2023-07-02T00:59:18;21.40;;;15.00;;
57067;SDS011;43391;47.448;18.904;2023-07-02T01:01:43;20.02;;;16.13;;
57067;SDS011;43391;47.448;18.904;2023-07-02T01:04:16;24.02;;;15.77;;
57067;SDS011;43391;47.448;18.904;2023-07-02T01:06:42;22.23;;;15.65;;
57067;SDS011;43391;47.448;18.904;2023-07-02T01:09:09;25.25;;;15.68;;
57067;SDS011;43391;47.448;18.904;2023-07-02T01:11:46;19.95;;;15.15;;
57067;SDS011;43391;47.448;18.904;2023-07-02T01:14:17;23.33;;;14.77;;
57067;SDS011;43391;47.448;18.904;2023-07-02T01:22:11;20.85;;;14.57;;
57067;SDS011;43391;47.448;18.904;2023-07-02T01:24:41;18.85;;;14.77;;
57067;SDS011;43391;47.448;18.904;2023-07-02T01:27:07;19.05;;;14.30;;
57067;SDS011;43391;47.448;18.904;2023-07-02T01:29:32;21.75;;;15.13;;
57067;SDS011;43391;47.448;18.904;2023-07-02T01:32:01;19.75;;;14.52;;
57067;SDS011;43391;47.448;18.904;2023-07-02T01:34:27;18.45;;;13.95;;
57067;SDS011;43391;47.448;18.904;2023-07-02T01:36:53;22.45;;;14.32;;
57067;SDS011;43391;47.448;18.904;2023-07-02T01:39:19;18.67;;;13.75;;
57067;SDS011;43391;47.448;18.904;2023-07-02T01:41:48;19.38;;;13.15;;
57067;SDS011;43391;47.448;18.904;2023-07-02T01:44:15;20.23;;;13.70;;
57067;SDS011;43391;47.448;18.904;2023-07-02T01:46:41;20.40;;;13.73;;
57067;SDS011;43391;47.448;18.904;2023-07-02T01:49:06;19.00;;;14.35;;
57067;SDS011;43391;47.448;18.904;2023-07-02T01:51:32;20.17;;;14.70;;
57067;SDS011;43391;47.448;18.904;2023-07-02T01:53:58;20.70;;;14.60;;
57067;SDS011;43391;47.448;18.904;2023-07-02T01:56:23;19.63;;;15.07;;
57067;SDS011;43391;47.448;18.904;2023-07-02T01:58:49;18.42;;;14.40;;
57067;SDS011;43391;47.448;18.904;2023-07-02T02:01:14;20.75;;;14.63;;
57067;SDS011;43391;47.448;18.904;2023-07-02T02:03:39;19.63;;;13.88;;
57067;SDS011;43391;47.448;18.904;2023-07-02T02:06:05;19.70;;;14.18;;
57067;SDS011;43391;47.448;18.904;2023-07-02T02:08:30;21.65;;;14.73;;
57067;SDS011;43391;47.448;18.904;2023-07-02T02:10:55;17.83;;;13.02;;
57067;SDS011;43391;47.448;18.904;2023-07-02T02:13:21;19.48;;;14.43;;
57067;SDS011;43391;47.448;18.904;2023-07-02T02:15:46;21.33;;;14.85;;
57067;SDS011;43391;47.448;18.904;2023-07-02T02:18:11;19.80;;;13.38;;
57067;SDS011;43391;47.448;18.904;2023-07-02T02:20:37;17.58;;;13.85;;
57067;SDS011;43391;47.448;18.904;2023-07-02T02:23:02;16.77;;;12.75;;
57067;SDS011;43391;47.448;18.904;2023-07-02T02:25:28;18.00;;;13.00;;
57067;SDS011;43391;47.448;18.904;2023-07-02T02:27:53;18.65;;;12.98;;
57067;SDS011;43391;47.448;18.904;2023-07-02T02:30:18;18.88;;;12.88;;
57067;SDS011;43391;47.448;18.904;2023-07-02T02:32:43;18.52;;;13.32;;
57067;SDS011;43391;47.448;18.904;2023-07-02T02:35:09;20.33;;;13.20;;
57067;SDS011;43391;47.448;18.904;2023-07-02T02:37:36;23.10;;;12.93;;
57067;SDS011;43391;47.448;18.904;2023-07-02T02:40:03;16.98;;;12.32;;
57067;SDS011;43391;47.448;18.904;2023-07-02T02:42:30;17.35;;;12.88;;
57067;SDS011;43391;47.448;18.904;2023-07-02T02:44:56;15.88;;;12.43;;
57067;SDS011;43391;47.448;18.904;2023-07-02T02:47:21;21.70;;;13.32;;
57067;SDS011;43391;47.448;18.904;2023-07-02T02:49:46;22.38;;;12.63;;
57067;SDS011;43391;47.448;18.904;2023-07-02T02:52:12;22.63;;;12.30;;
57067;SDS011;43391;47.448;18.904;2023-07-02T02:54:39;19.75;;;12.63;;
57067;SDS011;43391;47.448;18.904;2023-07-02T02:57:05;19.02;;;11.75;;
57067;SDS011;43391;47.448;18.904;2023-07-02T02:59:30;16.25;;;12.30;;
57067;SDS011;43391;47.448;18.904;2023-07-02T03:01:55;20.10;;;12.25;;
57067;SDS011;43391;47.448;18.904;2023-07-02T03:04:21;17.27;;;11.82;;
57067;SDS011;43391;47.448;18.904;2023-07-02T03:06:49;16.65;;;11.65;;
57067;SDS011;43391;47.448;18.904;2023-07-02T03:09:14;17.67;;;11.05;;
57067;SDS011;43391;47.448;18.904;2023-07-02T03:11:40;15.52;;;11.82;;
57067;SDS011;43391;47.448;18.904;2023-07-02T03:14:05;16.05;;;11.00;;
57067;SDS011;43391;47.448;18.904;2023-07-02T03:16:30;16.92;;;10.88;;
57067;SDS011;43391;47.448;18.904;2023-07-02T03:18:56;16.70;;;10.70;;
57067;SDS011;43391;47.448;18.904;2023-07-02T03:21:21;21.58;;;10.88;;
57067;SDS011;43391;47.448;18.904;2023-07-02T03:23:46;17.17;;;11.25;;
57067;SDS011;43391;47.448;18.904;2023-07-02T03:26:12;14.85;;;10.63;;
57067;SDS011;43391;47.448;18.904;2023-07-02T03:28:37;14.75;;;10.80;;
57067;SDS011;43391;47.448;18.904;2023-07-02T03:31:02;14.02;;;10.27;;
57067;SDS011;43391;47.448;18.904;2023-07-02T03:33:28;13.35;;;10.13;;
57067;SDS011;43391;47.448;18.904;2023-07-02T03:35:53;19.17;;;10.02;;
57067;SDS011;43391;47.448;18.904;2023-07-02T03:38:18;13.05;;;9.18;;
57067;SDS011;43391;47.448;18.904;2023-07-02T03:40:44;15.38;;;9.52;;
57067;SDS011;43391;47.448;18.904;2023-07-02T03:43:10;11.73;;;8.88;;
57067;SDS011;43391;47.448;18.904;2023-07-02T03:45:35;11.25;;;8.80;;
57067;SDS011;43391;47.448;18.904;2023-07-02T03:48:00;10.38;;;8.85;;
57067;SDS011;43391;47.448;18.904;2023-07-02T03:50:26;13.45;;;8.82;;
57067;SDS011;43391;47.448;18.904;2023-07-02T03:52:51;13.40;;;8.73;;
57067;SDS011;43391;47.448;18.904;2023-07-02T03:55:16;13.38;;;9.15;;
57067;SDS011;43391;47.448;18.904;2023-07-02T03:57:42;13.13;;;8.23;;
57067;SDS011;43391;47.448;18.904;2023-07-02T04:00:07;20.10;;;8.85;;
57067;SDS011;43391;47.448;18.904;2023-07-02T04:02:35;14.88;;;8.43;;
57067;SDS011;43391;47.448;18.904;2023-07-02T04:05:00;10.73;;;7.78;;
57067;SDS011;43391;47.448;18.904;2023-07-02T04:07:27;12.55;;;7.72;;
57067;SDS011;43391;47.448;18.904;2023-07-02T04:09:53;13.35;;;8.20;;
57067;SDS011;43391;47.448;18.904;2023-07-02T04:12:18;12.20;;;8.40;;
57067;SDS011;43391;47.448;18.904;2023-07-02T04:14:43;13.23;;;8.27;;
57067;SDS011;43391;47.448;18.904;2023-07-02T04:17:09;16.90;;;8.75;;
57067;SDS011;43391;47.448;18.904;2023-07-02T04:19:34;11.35;;;7.72;;
57067;SDS011;43391;47.448;18.904;2023-07-02T04:21:59;11.05;;;8.38;;
57067;SDS011;43391;47.448;18.904;2023-07-02T04:24:25;11.63;;;8.18;;
57067;SDS011;43391;47.448;18.904;2023-07-02T04:26:51;10.35;;;7.82;;
57067;SDS011;43391;47.448;18.904;2023-07-02T04:29:16;12.27;;;7.43;;
57067;SDS011;43391;47.448;18.904;2023-07-02T04:31:42;12.30;;;7.10;;
57067;SDS011;43391;47.448;18.904;2023-07-02T04:34:07;12.15;;;7.55;;
57067;SDS011;43391;47.448;18.904;2023-07-02T04:36:32;10.00;;;7.18;;
57067;SDS011;43391;47.448;18.904;2023-07-02T04:38:58;11.85;;;7.60;;
57067;SDS011;43391;47.448;18.904;2023-07-02T04:41:23;9.13;;;6.97;;
57067;SDS011;43391;47.448;18.904;2023-07-02T04:43:48;12.38;;;7.53;;
57067;SDS011;43391;47.448;18.904;2023-07-02T04:46:14;13.05;;;7.40;;
57067;SDS011;43391;47.448;18.904;2023-07-02T04:48:39;10.23;;;7.03;;
57067;SDS011;43391;47.448;18.904;2023-07-02T04:51:05;8.80;;;6.90;;
57067;SDS011;43391;47.448;18.904;2023-07-02T04:53:30;8.90;;;6.55;;
57067;SDS011;43391;47.448;18.904;2023-07-02T04:55:56;11.27;;;7.88;;
57067;SDS011;43391;47.448;18.904;2023-07-02T04:58:24;10.10;;;7.55;;
57067;SDS011;43391;47.448;18.904;2023-07-02T05:00:49;10.77;;;6.60;;
57067;SDS011;43391;47.448;18.904;2023-07-02T05:03:14;13.85;;;7.03;;
57067;SDS011;43391;47.448;18.904;2023-07-02T05:05:40;9.73;;;7.53;;
57067;SDS011;43391;47.448;18.904;2023-07-02T05:08:05;12.40;;;7.45;;
57067;SDS011;43391;47.448;18.904;2023-07-02T05:10:30;13.88;;;7.30;;
57067;SDS011;43391;47.448;18.904;2023-07-02T05:12:56;9.90;;;6.90;;
57067;SDS011;43391;47.448;18.904;2023-07-02T05:15:23;9.38;;;6.82;;
57067;SDS011;43391;47.448;18.904;2023-07-02T05:17:48;10.38;;;6.78;;
57067;SDS011;43391;47.448;18.904;2023-07-02T05:20:14;11.32;;;6.88;;
57067;SDS011;43391;47.448;18.904;2023-07-02T05:22:39;11.93;;;6.88;;
57067;SDS011;43391;47.448;18.904;2023-07-02T05:25:05;11.30;;;6.82;;
57067;SDS011;43391;47.448;18.904;2023-07-02T05:27:30;10.07;;;7.10;;
57067;SDS011;43391;47.448;18.904;2023-07-02T05:29:56;9.30;;;6.55;;
57067;SDS011;43391;47.448;18.904;2023-07-02T05:32:21;8.05;;;6.55;;
57067;SDS011;43391;47.448;18.904;2023-07-02T05:34:47;9.95;;;6.70;;
57067;SDS011;43391;47.448;18.904;2023-07-02T05:37:12;9.95;;;7.38;;
57067;SDS011;43391;47.448;18.904;2023-07-02T05:39:37;10.23;;;7.13;;
57067;SDS011;43391;47.448;18.904;2023-07-02T05:42:03;10.80;;;7.55;;
57067;SDS011;43391;47.448;18.904;2023-07-02T05:44:29;12.23;;;6.90;;
57067;SDS011;43391;47.448;18.904;2023-07-02T05:46:54;11.88;;;7.35;;
57067;SDS011;43391;47.448;18.904;2023-07-02T05:49:19;16.33;;;7.50;;
57067;SDS011;43391;47.448;18.904;2023-07-02T05:51:45;10.77;;;6.95;;
57067;SDS011;43391;47.448;18.904;2023-07-02T05:54:10;10.68;;;7.55;;
57067;SDS011;43391;47.448;18.904;2023-07-02T05:56:35;9.02;;;6.82;;
57067;SDS011;43391;47.448;18.904;2023-07-02T05:59:01;8.68;;;6.10;;
57067;SDS011;43391;47.448;18.904;2023-07-02T06:01:26;12.75;;;7.00;;
57067;SDS011;43391;47.448;18.904;2023-07-02T06:03:51;10.75;;;7.03;;
57067;SDS011;43391;47.448;18.904;2023-07-02T06:06:17;8.25;;;6.05;;
57067;SDS011;43391;47.448;18.904;2023-07-02T06:08:42;9.00;;;6.22;;
57067;SDS011;43391;47.448;18.904;2023-07-02T06:11:09;10.50;;;6.68;;
57067;SDS011;43391;47.448;18.904;2023-07-02T06:13:35;10.20;;;6.00;;
57067;SDS011;43391;47.448;18.904;2023-07-02T06:16:00;9.50;;;6.47;;
57067;SDS011;43391;47.448;18.904;2023-07-02T06:18:25;8.77;;;6.50;;
57067;SDS011;43391;47.448;18.904;2023-07-02T06:20:51;8.65;;;5.97;;
57067;SDS011;43391;47.448;18.904;2023-07-02T06:23:16;10.02;;;6.60;;
57067;SDS011;43391;47.448;18.904;2023-07-02T06:25:41;11.25;;;6.68;;
57067;SDS011;43391;47.448;18.904;2023-07-02T06:28:07;9.32;;;6.10;;
57067;SDS011;43391;47.448;18.904;2023-07-02T06:30:32;10.90;;;6.03;;
57067;SDS011;43391;47.448;18.904;2023-07-02T06:32:57;10.38;;;6.22;;
57067;SDS011;43391;47.448;18.904;2023-07-02T06:35:23;9.80;;;6.22;;
57067;SDS011;43391;47.448;18.904;2023-07-02T06:37:48;7.10;;;5.70;;
57067;SDS011;43391;47.448;18.904;2023-07-02T06:40:14;9.80;;;6.50;;
57067;SDS011;43391;47.448;18.904;2023-07-02T06:42:39;9.73;;;6.65;;
57067;SDS011;43391;47.448;18.904;2023-07-02T06:45:05;8.00;;;6.30;;
57067;SDS011;43391;47.448;18.904;2023-07-02T06:47:31;9.90;;;6.18;;
57067;SDS011;43391;47.448;18.904;2023-07-02T06:49:57;8.55;;;6.10;;
57067;SDS011;43391;47.448;18.904;2023-07-02T06:52:23;10.65;;;6.97;;
57067;SDS011;43391;47.448;18.904;2023-07-02T06:54:49;8.95;;;6.57;;
57067;SDS011;43391;47.448;18.904;2023-07-02T06:57:14;9.75;;;6.90;;
57067;SDS011;43391;47.448;18.904;2023-07-02T06:59:40;10.02;;;6.32;;
57067;SDS011;43391;47.448;18.904;2023-07-02T07:02:06;9.02;;;5.97;;
57067;SDS011;43391;47.448;18.904;2023-07-02T07:04:31;11.20;;;6.13;;
57067;SDS011;43391;47.448;18.904;2023-07-02T07:06:57;10.93;;;5.60;;
57067;SDS011;43391;47.448;18.904;2023-07-02T07:09:22;8.73;;;5.80;;
57067;SDS011;43391;47.448;18.904;2023-07-02T07:11:47;7.57;;;4.93;;
57067;SDS011;43391;47.448;18.904;2023-07-02T07:14:13;8.57;;;5.40;;
57067;SDS011;43391;47.448;18.904;2023-07-02T07:16:38;8.10;;;5.60;;
57067;SDS011;43391;47.448;18.904;2023-07-02T07:19:04;8.10;;;5.93;;
57067;SDS011;43391;47.448;18.904;2023-07-02T07:21:30;12.18;;;6.00;;
57067;SDS011;43391;47.448;18.904;2023-07-02T07:23:55;7.47;;;5.20;;
57067;SDS011;43391;47.448;18.904;2023-07-02T07:26:20;7.70;;;5.20;;
57067;SDS011;43391;47.448;18.904;2023-07-02T07:28:46;6.97;;;5.55;;
57067;SDS011;43391;47.448;18.904;2023-07-02T07:31:11;6.25;;;4.63;;
57067;SDS011;43391;47.448;18.904;2023-07-02T07:33:36;8.88;;;5.53;;
57067;SDS011;43391;47.448;18.904;2023-07-02T07:36:02;8.52;;;5.28;;
57067;SDS011;43391;47.448;18.904;2023-07-02T07:38:27;6.57;;;5.22;;
57067;SDS011;43391;47.448;18.904;2023-07-02T07:40:52;8.95;;;5.22;;
57067;SDS011;43391;47.448;18.904;2023-07-02T07:43:18;9.30;;;4.95;;
57067;SDS011;43391;47.448;18.904;2023-07-02T07:45:43;5.63;;;4.57;;
57067;SDS011;43391;47.448;18.904;2023-07-02T07:48:08;7.03;;;5.18;;
57067;SDS011;43391;47.448;18.904;2023-07-02T07:50:34;7.55;;;5.07;;
57067;SDS011;43391;47.448;18.904;2023-07-02T07:52:59;6.82;;;5.05;;
57067;SDS011;43391;47.448;18.904;2023-07-02T07:55:25;11.05;;;5.38;;
57067;SDS011;43391;47.448;18.904;2023-07-02T07:57:50;8.82;;;5.47;;
57067;SDS011;43391;47.448;18.904;2023-07-02T08:00:16;6.28;;;5.30;;
57067;SDS011;43391;47.448;18.904;2023-07-02T08:02:42;7.70;;;5.10;;
57067;SDS011;43391;47.448;18.904;2023-07-02T08:05:08;6.53;;;5.25;;
57067;SDS011;43391;47.448;18.904;2023-07-02T08:07:34;7.85;;;5.10;;
57067;SDS011;43391;47.448;18.904;2023-07-02T08:10:00;6.60;;;5.03;;
57067;SDS011;43391;47.448;18.904;2023-07-02T08:12:27;6.95;;;5.43;;
57067;SDS011;43391;47.448;18.904;2023-07-02T08:14:54;8.73;;;5.10;;
57067;SDS011;43391;47.448;18.904;2023-07-02T08:17:20;7.30;;;4.90;;
57067;SDS011;43391;47.448;18.904;2023-07-02T08:19:45;7.70;;;5.22;;
57067;SDS011;43391;47.448;18.904;2023-07-02T08:22:12;6.43;;;4.63;;
57067;SDS011;43391;47.448;18.904;2023-07-02T08:24:37;8.70;;;5.30;;
57067;SDS011;43391;47.448;18.904;2023-07-02T08:27:03;7.97;;;5.28;;
57067;SDS011;43391;47.448;18.904;2023-07-02T08:29:29;8.25;;;5.40;;
57067;SDS011;43391;47.448;18.904;2023-07-02T08:31:55;7.38;;;4.85;;
57067;SDS011;43391;47.448;18.904;2023-07-02T08:34:21;9.75;;;5.63;;
57067;SDS011;43391;47.448;18.904;2023-07-02T08:36:46;6.95;;;4.85;;
57067;SDS011;43391;47.448;18.904;2023-07-02T08:39:11;8.30;;;5.53;;
57067;SDS011;43391;47.448;18.904;2023-07-02T08:41:46;7.95;;;5.10;;
57067;SDS011;43391;47.448;18.904;2023-07-02T08:44:13;7.93;;;5.03;;
57067;SDS011;43391;47.448;18.904;2023-07-02T08:46:40;8.30;;;5.43;;
57067;SDS011;43391;47.448;18.904;2023-07-02T08:49:07;8.77;;;4.95;;
57067;SDS011;43391;47.448;18.904;2023-07-02T08:51:33;7.43;;;5.40;;
57067;SDS011;43391;47.448;18.904;2023-07-02T08:53:59;10.30;;;5.53;;
57067;SDS011;43391;47.448;18.904;2023-07-02T08:56:24;6.53;;;4.97;;
57067;SDS011;43391;47.448;18.904;2023-07-02T08:58:51;10.20;;;5.35;;
57067;SDS011;43391;47.448;18.904;2023-07-02T09:01:17;9.70;;;5.43;;
57067;SDS011;43391;47.448;18.904;2023-07-02T09:03:42;8.65;;;5.35;;
57067;SDS011;43391;47.448;18.904;2023-07-02T09:06:08;10.98;;;5.43;;
57067;SDS011;43391;47.448;18.904;2023-07-02T09:08:35;8.05;;;5.30;;
57067;SDS011;43391;47.448;18.904;2023-07-02T09:11:22;9.52;;;5.63;;
57067;SDS011;43391;47.448;18.904;2023-07-02T09:13:47;8.25;;;5.57;;
57067;SDS011;43391;47.448;18.904;2023-07-02T09:16:21;7.53;;;5.80;;
57067;SDS011;43391;47.448;18.904;2023-07-02T09:18:54;9.48;;;5.07;;
57067;SDS011;43391;47.448;18.904;2023-07-02T09:21:25;10.75;;;6.07;;
57067;SDS011;43391;47.448;18.904;2023-07-02T09:23:51;7.25;;;5.47;;
57067;SDS011;43391;47.448;18.904;2023-07-02T09:26:20;10.93;;;6.25;;
57067;SDS011;43391;47.448;18.904;2023-07-02T09:28:46;9.65;;;5.20;;
57067;SDS011;43391;47.448;18.904;2023-07-02T09:31:11;7.72;;;5.60;;
57067;SDS011;43391;47.448;18.904;2023-07-02T09:33:37;10.15;;;5.72;;
57067;SDS011;43391;47.448;18.904;2023-07-02T09:36:02;10.23;;;5.63;;
57067;SDS011;43391;47.448;18.904;2023-07-02T09:38:28;7.63;;;5.20;;
57067;SDS011;43391;47.448;18.904;2023-07-02T09:40:54;9.05;;;6.53;;
57067;SDS011;43391;47.448;18.904;2023-07-02T09:43:20;11.23;;;5.32;;
57067;SDS011;43391;47.448;18.904;2023-07-02T09:45:47;10.25;;;5.35;;
57067;SDS011;43391;47.448;18.904;2023-07-02T09:50:44;6.65;;;5.07;;
57067;SDS011;43391;47.448;18.904;2023-07-02T09:53:11;9.57;;;5.00;;
57067;SDS011;43391;47.448;18.904;2023-07-02T09:55:43;7.60;;;5.57;;
57067;SDS011;43391;47.448;18.904;2023-07-02T09:58:09;8.70;;;5.30;;
57067;SDS011;43391;47.448;18.904;2023-07-02T10:00:37;6.75;;;4.50;;
57067;SDS011;43391;47.448;18.904;2023-07-02T10:03:03;8.32;;;4.78;;
57067;SDS011;43391;47.448;18.904;2023-07-02T10:05:29;23.20;;;17.33;;
57067;SDS011;43391;47.448;18.904;2023-07-02T10:07:56;14.38;;;9.32;;
57067;SDS011;43391;47.448;18.904;2023-07-02T10:10:27;6.18;;;4.47;;
57067;SDS011;43391;47.448;18.904;2023-07-02T10:12:53;7.85;;;4.95;;
57067;SDS011;43391;47.448;18.904;2023-07-02T10:15:28;9.07;;;4.63;;
57067;SDS011;43391;47.448;18.904;2023-07-02T10:17:59;5.75;;;4.80;;
57067;SDS011;43391;47.448;18.904;2023-07-02T10:20:36;8.00;;;4.93;;
57067;SDS011;43391;47.448;18.904;2023-07-02T10:23:04;10.97;;;6.80;;
57067;SDS011;43391;47.448;18.904;2023-07-02T10:25:32;28.38;;;21.95;;
57067;SDS011;43391;47.448;18.904;2023-07-02T10:28:00;7.97;;;5.45;;
57067;SDS011;43391;47.448;18.904;2023-07-02T10:30:33;7.85;;;4.82;;
57067;SDS011;43391;47.448;18.904;2023-07-02T10:33:07;6.72;;;4.53;;
57067;SDS011;43391;47.448;18.904;2023-07-02T10:35:33;9.75;;;5.10;;
57067;SDS011;43391;47.448;18.904;2023-07-02T10:37:59;14.75;;;5.28;;
57067;SDS011;43391;47.448;18.904;2023-07-02T10:40:25;6.50;;;4.78;;
57067;SDS011;43391;47.448;18.904;2023-07-02T10:42:51;20.83;;;5.38;;
57067;SDS011;43391;47.448;18.904;2023-07-02T10:45:18;11.20;;;5.70;;
57067;SDS011;43391;47.448;18.904;2023-07-02T10:47:44;9.73;;;6.10;;
57067;SDS011;43391;47.448;18.904;2023-07-02T10:50:17;9.05;;;5.07;;
57067;SDS011;43391;47.448;18.904;2023-07-02T10:52:44;6.80;;;5.65;;
57067;SDS011;43391;47.448;18.904;2023-07-02T10:55:10;7.72;;;5.80;;
57067;SDS011;43391;47.448;18.904;2023-07-02T10:57:35;7.75;;;4.90;;
57067;SDS011;43391;47.448;18.904;2023-07-02T11:00:04;7.10;;;4.70;;
57067;SDS011;43391;47.448;18.904;2023-07-02T11:02:36;12.02;;;5.40;;
57067;SDS011;43391;47.448;18.904;2023-07-02T11:05:01;6.82;;;4.60;;
57067;SDS011;43391;47.448;18.904;2023-07-02T11:07:28;7.68;;;5.18;;
57067;SDS011;43391;47.448;18.904;2023-07-02T11:09:53;8.73;;;5.55;;
57067;SDS011;43391;47.448;18.904;2023-07-02T11:12:22;7.78;;;5.60;;
57067;SDS011;43391;47.448;18.904;2023-07-02T11:14:55;10.07;;;7.18;;
57067;SDS011;43391;47.448;18.904;2023-07-02T11:17:29;8.07;;;5.47;;
57067;SDS011;43391;47.448;18.904;2023-07-02T11:19:54;8.32;;;5.63;;
57067;SDS011;43391;47.448;18.904;2023-07-02T11:22:20;10.73;;;6.53;;
57067;SDS011;43391;47.448;18.904;2023-07-02T11:24:56;7.40;;;4.85;;
57067;SDS011;43391;47.448;18.904;2023-07-02T11:27:21;9.38;;;6.60;;
57067;SDS011;43391;47.448;18.904;2023-07-02T11:29:47;19.63;;;13.82;;
57067;SDS011;43391;47.448;18.904;2023-07-02T11:32:12;12.20;;;8.95;;
57067;SDS011;43391;47.448;18.904;2023-07-02T11:34:39;9.40;;;6.47;;
57067;SDS011;43391;47.448;18.904;2023-07-02T11:37:04;14.25;;;8.25;;
57067;SDS011;43391;47.448;18.904;2023-07-02T11:39:31;12.30;;;7.20;;
57067;SDS011;43391;47.448;18.904;2023-07-02T11:41:56;11.77;;;6.25;;
57067;SDS011;43391;47.448;18.904;2023-07-02T11:44:22;8.68;;;5.60;;
57067;SDS011;43391;47.448;18.904;2023-07-02T11:46:47;7.78;;;4.88;;
57067;SDS011;43391;47.448;18.904;2023-07-02T11:49:13;6.40;;;4.38;;
57067;SDS011;43391;47.448;18.904;2023-07-02T11:51:39;9.07;;;5.25;;
57067;SDS011;43391;47.448;18.904;2023-07-02T11:54:05;6.63;;;4.90;;
57067;SDS011;43391;47.448;18.904;2023-07-02T11:56:32;11.18;;;5.07;;
57067;SDS011;43391;47.448;18.904;2023-07-02T11:58:58;6.68;;;4.07;;
57067;SDS011;43391;47.448;18.904;2023-07-02T12:01:24;7.13;;;4.15;;
57067;SDS011;43391;47.448;18.904;2023-07-02T12:03:49;8.68;;;4.75;;
57067;SDS011;43391;47.448;18.904;2023-07-02T12:06:15;6.57;;;4.93;;
57067;SDS011;43391;47.448;18.904;2023-07-02T12:08:40;6.82;;;5.32;;
57067;SDS011;43391;47.448;18.904;2023-07-02T12:11:07;6.72;;;5.55;;
57067;SDS011;43391;47.448;18.904;2023-07-02T12:13:32;11.38;;;4.03;;
57067;SDS011;43391;47.448;18.904;2023-07-02T12:15:58;8.38;;;6.57;;
57067;SDS011;43391;47.448;18.904;2023-07-02T12:18:23;8.80;;;6.45;;
57067;SDS011;43391;47.448;18.904;2023-07-02T12:20:48;9.65;;;4.60;;
57067;SDS011;43391;47.448;18.904;2023-07-02T12:23:14;5.20;;;4.10;;
57067;SDS011;43391;47.448;18.904;2023-07-02T12:25:39;7.40;;;5.20;;
57067;SDS011;43391;47.448;18.904;2023-07-02T12:28:05;9.10;;;4.00;;
57067;SDS011;43391;47.448;18.904;2023-07-02T12:30:31;9.02;;;5.07;;
57067;SDS011;43391;47.448;18.904;2023-07-02T12:32:56;8.73;;;4.45;;
57067;SDS011;43391;47.448;18.904;2023-07-02T12:35:22;4.85;;;3.78;;
57067;SDS011;43391;47.448;18.904;2023-07-02T12:37:48;7.65;;;4.20;;
57067;SDS011;43391;47.448;18.904;2023-07-02T12:40:16;6.97;;;4.70;;
57067;SDS011;43391;47.448;18.904;2023-07-02T12:42:43;6.82;;;4.32;;
57067;SDS011;43391;47.448;18.904;2023-07-02T12:45:09;8.13;;;5.18;;
57067;SDS011;43391;47.448;18.904;2023-07-02T12:47:36;5.22;;;4.25;;
57067;SDS011;43391;47.448;18.904;2023-07-02T12:50:02;19.13;;;12.90;;
57067;SDS011;43391;47.448;18.904;2023-07-02T12:52:28;12.50;;;7.60;;
57067;SDS011;43391;47.448;18.904;2023-07-02T12:54:54;7.72;;;5.60;;
57067;SDS011;43391;47.448;18.904;2023-07-02T12:57:19;46.45;;;27.92;;
57067;SDS011;43391;47.448;18.904;2023-07-02T12:59:45;47.58;;;29.95;;
57067;SDS011;43391;47.448;18.904;2023-07-02T13:02:10;15.02;;;7.75;;
57067;SDS011;43391;47.448;18.904;2023-07-02T13:04:36;11.10;;;9.25;;
57067;SDS011;43391;47.448;18.904;2023-07-02T13:07:03;3.90;;;3.25;;
57067;SDS011;43391;47.448;18.904;2023-07-02T13:09:28;5.60;;;4.10;;
57067;SDS011;43391;47.448;18.904;2023-07-02T13:11:54;3.08;;;2.38;;
57067;SDS011;43391;47.448;18.904;2023-07-02T13:14:20;3.72;;;2.50;;
57067;SDS011;43391;47.448;18.904;2023-07-02T13:16:46;3.90;;;2.58;;
57067;SDS011;43391;47.448;18.904;2023-07-02T13:19:12;3.17;;;2.63;;
57067;SDS011;43391;47.448;18.904;2023-07-02T13:21:38;3.08;;;2.28;;
57067;SDS011;43391;47.448;18.904;2023-07-02T13:24:04;3.88;;;1.90;;
57067;SDS011;43391;47.448;18.904;2023-07-02T13:26:30;2.03;;;1.85;;
57067;SDS011;43391;47.448;18.904;2023-07-02T13:28:55;2.15;;;1.80;;
57067;SDS011;43391;47.448;18.904;2023-07-02T13:31:21;1.50;;;1.40;;
57067;SDS011;43391;47.448;18.904;2023-07-02T13:33:47;2.10;;;1.90;;
57067;SDS011;43391;47.448;18.904;2023-07-02T13:36:14;2.88;;;2.03;;
57067;SDS011;43391;47.448;18.904;2023-07-02T13:38:40;3.65;;;1.83;;
57067;SDS011;43391;47.448;18.904;2023-07-02T13:41:06;2.65;;;1.67;;
57067;SDS011;43391;47.448;18.904;2023-07-02T13:43:32;2.13;;;1.40;;
57067;SDS011;43391;47.448;18.904;2023-07-02T13:45:58;2.95;;;1.95;;
57067;SDS011;43391;47.448;18.904;2023-07-02T13:48:23;4.65;;;2.17;;
57067;SDS011;43391;47.448;18.904;2023-07-02T13:50:49;4.93;;;2.00;;
57067;SDS011;43391;47.448;18.904;2023-07-02T13:53:14;3.88;;;2.25;;
57067;SDS011;43391;47.448;18.904;2023-07-02T13:55:40;4.25;;;2.17;;
57067;SDS011;43391;47.448;18.904;2023-07-02T13:58:05;2.83;;;2.05;;
57067;SDS011;43391;47.448;18.904;2023-07-02T14:00:31;3.58;;;2.50;;
57067;SDS011;43391;47.448;18.904;2023-07-02T14:02:56;3.60;;;2.00;;
57067;SDS011;43391;47.448;18.904;2023-07-02T14:05:23;2.53;;;2.30;;
57067;SDS011;43391;47.448;18.904;2023-07-02T14:07:49;5.82;;;2.53;;
57067;SDS011;43391;47.448;18.904;2023-07-02T14:10:14;2.35;;;1.80;;
57067;SDS011;43391;47.448;18.904;2023-07-02T14:12:41;3.00;;;2.10;;
57067;SDS011;43391;47.448;18.904;2023-07-02T14:15:08;3.92;;;1.95;;
57067;SDS011;43391;47.448;18.904;2023-07-02T14:17:34;3.35;;;2.03;;
57067;SDS011;43391;47.448;18.904;2023-07-02T14:20:00;3.63;;;2.30;;
57067;SDS011;43391;47.448;18.904;2023-07-02T14:22:27;4.20;;;2.33;;
57067;SDS011;43391;47.448;18.904;2023-07-02T14:24:53;4.90;;;2.22;;